createdAt,value
2023-04-21T00:01:29.857Z,6.13
2023-04-21T00:03:56.488Z,6.23
2023-04-21T00:06:23.460Z,5.70
2023-04-21T00:08:50.706Z,5.63
2023-04-21T00:11:17.570Z,5.73
2023-04-21T00:13:44.523Z,5.37
2023-04-21T00:16:11.541Z,5.63
2023-04-21T00:18:38.004Z,5.40
2023-04-21T00:21:04.731Z,6.03
2023-04-21T00:23:31.168Z,5.70
2023-04-21T00:25:57.704Z,5.23
2023-04-21T00:28:24.217Z,5.10
2023-04-21T00:30:50.859Z,5.93
2023-04-21T00:33:17.331Z,5.10
2023-04-21T00:35:43.774Z,5.83
2023-04-21T00:38:10.234Z,5.90
2023-04-21T00:40:36.735Z,6.07
2023-04-21T00:43:07.631Z,4.93
2023-04-21T00:45:34.084Z,6.17
2023-04-21T00:48:00.608Z,6.77
2023-04-21T00:50:27.234Z,5.50
2023-04-21T00:52:54.207Z,5.47
2023-04-21T00:55:21.660Z,6.00
2023-04-21T00:57:50.486Z,5.97
2023-04-21T01:00:17.684Z,5.60
2023-04-21T01:02:45.558Z,5.30
2023-04-21T01:05:16.367Z,5.20
2023-04-21T01:07:43.959Z,4.50
2023-04-21T01:10:10.582Z,5.53
2023-04-21T01:12:45.242Z,4.87
2023-04-21T01:15:13.447Z,5.83
2023-04-21T01:17:40.322Z,5.47
2023-04-21T01:20:13.372Z,5.40
2023-04-21T01:22:42.173Z,5.37
2023-04-21T01:25:09.566Z,5.50
2023-04-21T01:27:36.401Z,5.17
2023-04-21T01:30:04.062Z,5.10
2023-04-21T01:32:31.356Z,5.93
2023-04-21T01:34:59.275Z,4.97
2023-04-21T01:37:30.617Z,4.90
2023-04-21T01:40:00.452Z,5.97
2023-04-21T01:42:28.651Z,5.43
2023-04-21T01:44:55.803Z,5.30
2023-04-21T01:47:24.003Z,4.93
2023-04-21T01:49:50.634Z,5.60
2023-04-21T01:52:18.692Z,5.47
2023-04-21T01:54:45.931Z,4.90
2023-04-21T01:57:13.970Z,4.80
2023-04-21T01:59:40.546Z,5.53
2023-04-21T02:02:07.617Z,4.80
2023-04-21T02:04:34.370Z,5.40
2023-04-21T02:07:01.191Z,5.37
2023-04-21T02:09:27.762Z,5.13
2023-04-21T02:11:57.061Z,5.43
2023-04-21T02:14:25.014Z,5.47
2023-04-21T02:16:51.587Z,4.70
2023-04-21T02:19:18.252Z,5.47
2023-04-21T02:21:44.897Z,5.00
2023-04-21T02:24:11.358Z,4.63
2023-04-21T02:26:37.855Z,5.13
2023-04-21T02:29:04.450Z,5.00
2023-04-21T02:31:31.010Z,4.87
2023-04-21T02:33:57.577Z,5.37
2023-04-21T02:36:24.060Z,5.07
2023-04-21T02:38:51.114Z,4.90
2023-04-21T02:41:17.549Z,5.13
2023-04-21T02:43:43.968Z,4.70
2023-04-21T02:46:10.537Z,5.57
2023-04-21T02:48:37.140Z,4.77
2023-04-21T02:51:04.561Z,4.37
2023-04-21T02:53:31.689Z,5.03
2023-04-21T02:55:58.249Z,5.50
2023-04-21T02:58:24.744Z,4.90
2023-04-21T03:00:51.836Z,5.13
2023-04-21T03:03:18.536Z,4.63
2023-04-21T03:05:45.482Z,4.73
2023-04-21T03:08:11.923Z,5.20
2023-04-21T03:10:38.763Z,5.23
2023-04-21T03:13:05.301Z,4.83
2023-04-21T03:15:32.058Z,4.83
2023-04-21T03:18:01.396Z,4.20
2023-04-21T03:20:28.099Z,4.47
2023-04-21T03:22:54.556Z,4.37
2023-04-21T03:25:21.543Z,5.20
2023-04-21T03:27:48.059Z,5.37
2023-04-21T03:30:14.609Z,5.17
2023-04-21T03:32:41.094Z,5.07
2023-04-21T03:35:07.910Z,4.93
2023-04-21T03:37:34.428Z,4.67
2023-04-21T03:40:01.076Z,4.40
2023-04-21T03:42:29.693Z,4.33
2023-04-21T03:44:56.935Z,4.57
2023-04-21T03:47:24.064Z,4.87
2023-04-21T03:49:51.514Z,4.97
2023-04-21T03:52:17.972Z,4.90
2023-04-21T03:54:44.414Z,5.20
2023-04-21T03:57:10.855Z,4.73
2023-04-21T03:59:37.308Z,5.23
2023-04-21T04:02:04.160Z,4.63
2023-04-21T04:04:31.037Z,4.87
2023-04-21T04:06:57.753Z,3.90
2023-04-21T04:09:24.429Z,4.73
2023-04-21T04:11:50.878Z,4.37
2023-04-21T04:14:17.470Z,4.43
2023-04-21T04:16:43.928Z,4.33
2023-04-21T04:19:11.504Z,4.80
2023-04-21T04:21:38.171Z,4.67
2023-04-21T04:24:05.339Z,4.60
2023-04-21T04:26:34.470Z,4.37
2023-04-21T04:29:02.250Z,4.53
2023-04-21T04:31:32.410Z,4.10
2023-04-21T04:33:59.121Z,3.97
2023-04-21T04:36:25.667Z,4.63
2023-04-21T04:38:52.385Z,4.67
2023-04-21T04:41:20.846Z,4.30
2023-04-21T04:43:47.427Z,4.80
2023-04-21T04:46:13.871Z,4.10
2023-04-21T04:48:40.729Z,4.27
2023-04-21T04:51:07.445Z,4.63
2023-04-21T04:53:33.927Z,4.20
2023-04-21T04:56:00.440Z,4.17
2023-04-21T04:58:27.044Z,4.30
2023-04-21T05:00:53.507Z,4.43
2023-04-21T05:03:20.305Z,4.03
2023-04-21T05:05:46.922Z,4.30
2023-04-21T05:08:15.087Z,4.73
2023-04-21T05:10:42.898Z,4.30
2023-04-21T05:13:09.348Z,4.47
2023-04-21T05:15:35.794Z,4.33
2023-04-21T05:18:02.425Z,4.60
2023-04-21T05:20:28.903Z,4.13
2023-04-21T05:22:55.457Z,4.33
2023-04-21T05:25:21.942Z,3.23
2023-04-21T05:27:48.486Z,4.40
2023-04-21T05:30:14.958Z,5.03
2023-04-21T05:32:41.459Z,4.43
2023-04-21T05:35:08.246Z,4.33
2023-04-21T05:37:35.088Z,6.37
2023-04-21T05:40:01.630Z,4.63
2023-04-21T05:42:28.168Z,5.00
2023-04-21T05:44:55.172Z,4.07
2023-04-21T05:47:21.663Z,4.13
2023-04-21T05:49:52.452Z,5.03
2023-04-21T05:52:21.231Z,4.70
2023-04-21T05:54:47.790Z,3.70
2023-04-21T05:57:16.149Z,4.13
2023-04-21T05:59:43.607Z,4.23
2023-04-21T06:02:10.366Z,4.07
2023-04-21T06:04:36.997Z,4.03
2023-04-21T06:07:13.320Z,3.70
2023-04-21T06:09:41.091Z,4.17
2023-04-21T06:12:07.643Z,4.47
2023-04-21T06:14:34.112Z,3.90
2023-04-21T06:17:00.567Z,4.20
2023-04-21T06:19:26.996Z,4.40
2023-04-21T06:21:53.514Z,4.20
2023-04-21T06:24:25.131Z,4.10
2023-04-21T06:26:52.863Z,4.13
2023-04-21T06:29:20.088Z,4.13
2023-04-21T06:31:47.654Z,4.40
2023-04-21T06:34:14.142Z,4.40
2023-04-21T06:36:40.619Z,4.33
2023-04-21T06:39:07.062Z,4.50
2023-04-21T06:41:33.793Z,4.70
2023-04-21T06:44:00.397Z,4.77
2023-04-21T06:46:26.920Z,4.10
2023-04-21T06:48:53.342Z,3.70
2023-04-21T06:51:19.806Z,4.93
2023-04-21T06:53:46.254Z,4.63
2023-04-21T06:56:12.787Z,3.97
2023-04-21T06:58:39.211Z,8.03
2023-04-21T07:01:06.108Z,5.53
2023-04-21T07:03:32.606Z,7.60
2023-04-21T07:05:59.166Z,8.97
2023-04-21T07:08:25.614Z,13.50
2023-04-21T07:10:52.049Z,6.27
2023-04-21T07:13:18.543Z,10.27
2023-04-21T07:15:45.201Z,7.83
2023-04-21T07:18:11.635Z,6.47
2023-04-21T07:20:38.329Z,7.03
2023-04-21T07:23:04.826Z,6.27
2023-04-21T07:25:31.294Z,6.13
2023-04-21T07:27:57.773Z,5.10
2023-04-21T07:30:24.271Z,7.00
2023-04-21T07:32:50.782Z,4.97
2023-04-21T07:35:17.403Z,6.13
2023-04-21T07:37:44.302Z,6.63
2023-04-21T07:40:11.583Z,5.30
2023-04-21T07:42:38.291Z,4.40
2023-04-21T07:45:05.483Z,4.77
2023-04-21T07:47:32.434Z,4.57
2023-04-21T07:49:59.009Z,4.77
2023-04-21T07:52:25.710Z,4.80
2023-04-21T07:54:52.168Z,3.70
2023-04-21T07:57:18.588Z,4.20
2023-04-21T07:59:45.135Z,4.07
2023-04-21T08:02:11.663Z,5.50
2023-04-21T08:04:38.383Z,4.73
2023-04-21T08:07:05.260Z,4.10
2023-04-21T08:09:32.111Z,4.60
2023-04-21T08:11:58.717Z,4.00
2023-04-21T08:14:26.855Z,4.67
2023-04-21T08:16:56.139Z,4.63
2023-04-21T08:19:23.688Z,4.43
2023-04-21T08:21:50.265Z,4.10
2023-04-21T08:24:16.772Z,4.40
2023-04-21T08:26:43.406Z,4.20
2023-04-21T08:29:10.700Z,4.47
2023-04-21T08:31:37.334Z,4.10
2023-04-21T08:34:03.939Z,4.60
2023-04-21T08:36:31.670Z,4.67
2023-04-21T08:38:58.767Z,4.20
2023-04-21T08:41:26.015Z,5.37
2023-04-21T08:43:52.489Z,3.73
2023-04-21T08:46:19.823Z,4.70
2023-04-21T08:48:47.579Z,4.13
2023-04-21T08:51:21.689Z,4.60
2023-04-21T08:53:48.185Z,5.83
2023-04-21T08:56:14.938Z,3.83
2023-04-21T08:58:41.977Z,3.70
2023-04-21T09:01:08.685Z,4.47
2023-04-21T09:03:35.686Z,3.73
2023-04-21T09:06:08.153Z,4.37
2023-04-21T09:08:38.184Z,3.90
2023-04-21T09:11:04.647Z,4.17
2023-04-21T09:13:37.213Z,4.23
2023-04-21T09:16:14.711Z,3.90
2023-04-21T09:18:44.089Z,4.27
2023-04-21T09:21:16.037Z,3.70
2023-04-21T09:23:46.732Z,4.13
2023-04-21T09:26:13.524Z,4.97
2023-04-21T09:28:44.395Z,3.80
2023-04-21T09:31:15.638Z,3.43
2023-04-21T09:36:28.362Z,3.77
2023-04-21T09:39:15.448Z,3.73
2023-04-21T09:41:41.381Z,3.23
2023-04-21T09:44:07.901Z,5.17
2023-04-21T09:46:36.125Z,3.30
2023-04-21T09:49:03.672Z,3.90
2023-04-21T09:51:45.963Z,3.40
2023-04-21T09:56:53.708Z,3.63
2023-04-21T09:59:25.971Z,4.60
2023-04-21T10:01:55.544Z,3.40
2023-04-21T10:04:23.924Z,3.67
2023-04-21T10:06:51.499Z,3.57
2023-04-21T10:09:21.380Z,4.10
2023-04-21T10:11:48.350Z,4.53
2023-04-21T10:14:14.828Z,3.50
2023-04-21T10:16:42.601Z,3.60
2023-04-21T10:19:31.856Z,3.70
2023-04-21T10:21:58.952Z,3.57
2023-04-21T10:24:30.257Z,3.80
2023-04-21T10:26:59.816Z,3.27
2023-04-21T10:29:40.227Z,3.97
2023-04-21T10:32:11.064Z,3.70
2023-04-21T10:34:38.635Z,3.50
2023-04-21T10:37:05.056Z,4.20
2023-04-21T10:39:36.874Z,3.47
2023-04-21T10:42:12.848Z,3.83
2023-04-21T10:44:55.821Z,3.50
2023-04-21T10:47:28.817Z,3.27
2023-04-21T10:49:59.381Z,4.00
2023-04-21T10:52:35.828Z,3.63
2023-04-21T10:55:07.049Z,3.17
2023-04-21T10:57:35.164Z,3.63
2023-04-21T11:00:06.153Z,3.43
2023-04-21T11:02:36.455Z,3.53
2023-04-21T11:05:06.166Z,3.60
2023-04-21T11:07:32.778Z,3.87
2023-04-21T11:10:07.718Z,2.97
2023-04-21T11:12:38.099Z,3.50
2023-04-21T11:15:10.238Z,3.57
2023-04-21T11:17:39.570Z,3.97
2023-04-21T11:20:07.061Z,3.77
2023-04-21T11:22:34.080Z,3.33
2023-04-21T11:25:00.836Z,34.22
2023-04-21T11:27:29.095Z,310.40
2023-04-21T11:29:55.765Z,268.83
2023-04-21T11:32:22.350Z,181.10
2023-04-21T11:34:49.117Z,146.37
2023-04-21T11:37:26.196Z,135.23
2023-04-21T11:40:00.591Z,121.60
2023-04-21T11:42:27.755Z,112.57
2023-04-21T11:44:56.298Z,98.67
2023-04-21T11:47:25.124Z,103.67
2023-04-21T11:49:54.611Z,85.67
2023-04-21T11:52:37.223Z,75.80
2023-04-21T11:55:06.364Z,79.43
2023-04-21T11:57:33.960Z,72.60
2023-04-21T12:00:02.100Z,65.43
2023-04-21T12:02:32.348Z,57.17
2023-04-21T12:05:04.381Z,54.93
2023-04-21T12:07:32.320Z,55.10
2023-04-21T12:09:59.684Z,47.60
2023-04-21T12:12:26.804Z,49.17
2023-04-21T12:14:53.509Z,40.63
2023-04-21T12:17:20.705Z,46.63
2023-04-21T12:19:47.578Z,33.30
2023-04-21T12:22:18.707Z,36.13
2023-04-21T12:24:45.373Z,26.57
2023-04-21T12:27:12.454Z,31.40
2023-04-21T12:29:39.515Z,30.33
2023-04-21T12:32:06.833Z,31.00
2023-04-21T12:34:33.713Z,29.10
2023-04-21T12:37:00.897Z,29.53
2023-04-21T12:39:27.698Z,15.87
2023-04-21T12:41:54.455Z,33.17
2023-04-21T12:44:21.027Z,25.60
2023-04-21T12:46:49.121Z,29.43
2023-04-21T12:49:17.152Z,17.10
2023-04-21T12:51:44.517Z,18.17
2023-04-21T12:54:11.822Z,13.93
2023-04-21T12:56:40.188Z,15.10
2023-04-21T12:59:07.101Z,23.17
2023-04-21T13:01:33.622Z,14.90
2023-04-21T13:04:00.498Z,11.93
2023-04-21T13:06:28.180Z,12.17
2023-04-21T13:08:54.907Z,12.80
2023-04-21T13:11:21.679Z,16.40
2023-04-21T13:13:48.225Z,13.53
2023-04-21T13:16:14.762Z,14.33
2023-04-21T13:18:41.642Z,13.37
2023-04-21T13:21:08.182Z,13.40
2023-04-21T13:23:34.672Z,13.77
2023-04-21T13:26:01.245Z,12.67
2023-04-21T13:28:27.797Z,14.23
2023-04-21T13:30:54.444Z,12.57
2023-04-21T13:33:22.074Z,12.27
2023-04-21T13:35:49.036Z,11.60
2023-04-21T13:38:15.671Z,9.33
2023-04-21T13:40:42.503Z,10.90
2023-04-21T13:43:09.249Z,10.93
2023-04-21T13:45:35.800Z,7.63
2023-04-21T13:48:02.344Z,6.97
2023-04-21T13:50:28.811Z,8.77
2023-04-21T13:52:55.363Z,8.37
2023-04-21T13:55:21.991Z,7.07
2023-04-21T13:57:48.524Z,6.70
2023-04-21T14:00:15.831Z,4.23
2023-04-21T14:02:42.537Z,5.13
2023-04-21T14:05:09.556Z,6.00
2023-04-21T14:07:36.521Z,5.80
2023-04-21T14:10:04.310Z,7.67
2023-04-21T14:12:31.027Z,5.10
2023-04-21T14:14:57.445Z,5.03
2023-04-21T14:17:24.074Z,5.77
2023-04-21T14:19:51.595Z,5.47
2023-04-21T14:22:20.551Z,6.37
2023-04-21T14:24:47.002Z,5.97
2023-04-21T14:27:13.525Z,5.07
2023-04-21T14:29:39.989Z,5.90
2023-04-21T14:32:06.601Z,5.13
2023-04-21T14:34:33.069Z,4.30
2023-04-21T14:37:00.478Z,5.13
2023-04-21T14:39:27.161Z,3.37
2023-04-21T14:41:53.638Z,5.80
2023-04-21T14:44:20.281Z,3.47
2023-04-21T14:46:56.981Z,3.20
2023-04-21T14:49:28.062Z,3.37
2023-04-21T14:51:54.609Z,4.77
2023-04-21T14:54:21.173Z,6.43
2023-04-21T14:56:47.610Z,3.40
2023-04-21T14:59:14.107Z,3.60
2023-04-21T15:01:40.837Z,4.07
2023-04-21T15:04:07.660Z,3.93
2023-04-21T15:06:34.343Z,3.83
2023-04-21T15:09:00.850Z,2.73
2023-04-21T15:11:27.402Z,4.47
2023-04-21T15:13:53.879Z,3.87
2023-04-21T15:16:20.437Z,5.07
2023-04-21T15:18:46.979Z,2.90
2023-04-21T15:21:13.482Z,3.00
2023-04-21T15:23:40.307Z,3.27
2023-04-21T15:26:06.738Z,3.20
2023-04-21T15:28:33.207Z,3.30
2023-04-21T15:30:59.799Z,5.83
2023-04-21T15:33:26.736Z,3.03
2023-04-21T15:35:53.294Z,3.00
2023-04-21T15:38:21.121Z,5.67
2023-04-21T15:41:00.098Z,3.97
2023-04-21T15:43:27.436Z,3.17
2023-04-21T15:45:54.013Z,2.70
2023-04-21T15:48:22.121Z,4.77
2023-04-21T15:50:48.865Z,3.73
2023-04-21T15:53:16.724Z,3.47
2023-04-21T15:55:45.224Z,2.80
2023-04-21T15:58:13.535Z,3.77
2023-04-21T16:00:42.929Z,4.07
2023-04-21T16:03:09.798Z,2.87
2023-04-21T16:05:36.640Z,2.80
2023-04-21T16:08:03.383Z,3.07
2023-04-21T16:10:29.909Z,3.37
2023-04-21T16:12:56.513Z,2.97
2023-04-21T16:15:24.975Z,2.63
2023-04-21T16:17:52.508Z,3.93
2023-04-21T16:20:19.323Z,5.47
2023-04-21T16:22:46.110Z,2.83
2023-04-21T16:25:14.087Z,2.60
2023-04-21T16:27:40.858Z,3.23
2023-04-21T16:30:08.414Z,2.53
2023-04-21T16:32:35.747Z,3.80
2023-04-21T16:35:07.838Z,3.13
2023-04-21T16:37:35.896Z,2.80
2023-04-21T16:40:05.769Z,3.43
2023-04-21T16:42:33.362Z,3.00
2023-04-21T16:45:03.252Z,3.53
2023-04-21T16:47:37.865Z,2.70
2023-04-21T16:50:11.157Z,2.53
2023-04-21T16:52:37.703Z,2.63
2023-04-21T16:55:04.506Z,2.13
2023-04-21T16:57:31.162Z,3.40
2023-04-21T16:59:59.076Z,2.73
2023-04-21T17:02:25.765Z,2.73
2023-04-21T17:04:52.451Z,2.43
2023-04-21T17:07:19.023Z,2.23
2023-04-21T17:09:45.618Z,2.63
2023-04-21T17:12:12.190Z,2.67
2023-04-21T17:14:38.930Z,2.33
2023-04-21T17:17:06.028Z,3.27
2023-04-21T17:19:32.576Z,2.20
2023-04-21T17:21:59.095Z,2.20
2023-04-21T17:24:25.962Z,2.60
2023-04-21T17:26:52.758Z,3.30
2023-04-21T17:29:19.314Z,2.70
2023-04-21T17:31:45.786Z,2.37
2023-04-21T17:34:12.272Z,2.50
2023-04-21T17:36:40.537Z,3.40
2023-04-21T17:39:07.017Z,4.00
2023-04-21T17:41:33.617Z,2.40
2023-04-21T17:44:00.903Z,2.60
2023-04-21T17:46:27.571Z,3.23
2023-04-21T17:48:54.227Z,2.67
2023-04-21T17:51:20.747Z,2.30
2023-04-21T17:53:47.209Z,2.93
2023-04-21T17:56:14.457Z,2.40
2023-04-21T17:58:41.581Z,2.60
2023-04-21T18:01:08.331Z,2.43
2023-04-21T18:03:41.081Z,2.23
2023-04-21T18:06:10.426Z,2.30
2023-04-21T18:08:37.903Z,2.43
2023-04-21T18:11:04.431Z,2.57
2023-04-21T18:13:30.956Z,2.20
2023-04-21T18:15:57.837Z,2.23
2023-04-21T18:18:24.404Z,2.00
2023-04-21T18:20:50.971Z,2.20
2023-04-21T18:23:17.510Z,2.37
2023-04-21T18:25:44.022Z,2.20
2023-04-21T18:28:14.243Z,2.10
2023-04-21T18:30:41.231Z,2.00
2023-04-21T18:33:09.496Z,2.10
2023-04-21T18:35:36.082Z,2.40
2023-04-21T18:38:02.792Z,2.40
2023-04-21T18:40:29.441Z,2.20
2023-04-21T18:42:56.840Z,2.03
2023-04-21T18:45:23.324Z,2.10
2023-04-21T18:47:49.835Z,2.43
2023-04-21T18:50:16.496Z,2.30
2023-04-21T18:52:43.316Z,2.30
2023-04-21T18:55:10.111Z,2.00
2023-04-21T18:57:36.559Z,2.00
2023-04-21T19:00:03.335Z,2.90
2023-04-21T19:02:30.092Z,1.90
2023-04-21T19:04:56.707Z,1.87
2023-04-21T19:07:23.183Z,2.20
2023-04-21T19:09:51.953Z,2.37
2023-04-21T19:12:18.396Z,2.50
2023-04-21T19:14:47.515Z,2.23
2023-04-21T19:17:14.603Z,2.07
2023-04-21T19:19:41.499Z,2.00
2023-04-21T19:22:08.032Z,2.00
2023-04-21T19:24:34.976Z,2.10
2023-04-21T19:27:02.383Z,2.00
2023-04-21T19:29:28.994Z,1.80
2023-04-21T19:31:55.523Z,2.10
2023-04-21T19:34:22.261Z,1.97
2023-04-21T19:36:49.370Z,2.03
2023-04-21T19:39:16.069Z,2.40
2023-04-21T19:41:42.971Z,2.10
2023-04-21T19:44:09.408Z,1.90
2023-04-21T19:46:36.042Z,2.33
2023-04-21T19:49:02.562Z,2.17
2023-04-21T19:51:29.047Z,2.60
2023-04-21T19:54:10.026Z,2.17
2023-04-21T19:56:38.471Z,2.10
2023-04-21T19:59:05.485Z,2.23
2023-04-21T20:01:33.132Z,2.03
2023-04-21T20:04:00.602Z,2.07
2023-04-21T20:06:27.397Z,1.90
2023-04-21T20:08:54.455Z,2.30
2023-04-21T20:11:21.378Z,2.00
2023-04-21T20:13:47.870Z,2.00
2023-04-21T20:16:14.423Z,1.80
2023-04-21T20:18:41.008Z,2.10
2023-04-21T20:21:07.438Z,2.00
2023-04-21T20:23:33.957Z,1.70
2023-04-21T20:26:01.047Z,2.10
2023-04-21T20:28:27.622Z,1.87
2023-04-21T20:30:56.173Z,2.40
2023-04-21T20:33:22.741Z,1.73
2023-04-21T20:35:49.799Z,2.00
2023-04-21T20:38:16.388Z,1.97
2023-04-21T20:40:43.076Z,2.00
2023-04-21T20:43:10.275Z,2.07
2023-04-21T20:45:37.677Z,1.87
2023-04-21T20:48:04.897Z,2.50
2023-04-21T20:50:31.454Z,2.20
2023-04-21T20:52:58.171Z,2.87
2023-04-21T20:55:24.723Z,1.97
2023-04-21T20:57:51.285Z,2.67
2023-04-21T21:00:17.884Z,2.23
2023-04-21T21:02:44.719Z,2.80
2023-04-21T21:05:11.330Z,2.00
2023-04-21T21:07:37.923Z,2.27
2023-04-21T21:10:05.425Z,1.90
2023-04-21T21:12:31.881Z,1.90
2023-04-21T21:14:58.309Z,2.17
2023-04-21T21:17:24.912Z,2.20
2023-04-21T21:19:51.369Z,1.87
2023-04-21T21:22:17.841Z,1.90
2023-04-21T21:24:44.361Z,2.23
2023-04-21T21:27:11.421Z,1.90
2023-04-21T21:29:38.087Z,1.97
2023-04-21T21:32:04.885Z,2.20
2023-04-21T21:34:31.428Z,2.10
2023-04-21T21:36:57.929Z,2.03
2023-04-21T21:39:24.409Z,1.80
2023-04-21T21:41:50.864Z,2.63
2023-04-21T21:44:17.334Z,1.83
2023-04-21T21:46:43.923Z,2.07
2023-04-21T21:49:10.807Z,2.40
2023-04-21T21:51:37.312Z,2.03
2023-04-21T21:54:03.808Z,2.30
2023-04-21T21:56:30.292Z,2.07
2023-04-21T21:58:56.761Z,2.93
2023-04-21T22:01:23.331Z,2.37
2023-04-21T22:03:51.820Z,2.40
2023-04-21T22:06:18.654Z,2.23
2023-04-21T22:08:45.511Z,2.13
2023-04-21T22:11:11.993Z,2.30
2023-04-21T22:13:38.478Z,2.47
2023-04-21T22:16:06.911Z,2.03
2023-04-21T22:18:33.475Z,2.50
2023-04-21T22:20:59.983Z,2.80
2023-04-21T22:23:26.777Z,2.07
2023-04-21T22:25:53.210Z,2.10
2023-04-21T22:28:19.690Z,2.30
2023-04-21T22:30:46.369Z,2.10
2023-04-21T22:33:13.098Z,2.10
2023-04-21T22:35:39.526Z,2.60
2023-04-21T22:38:06.025Z,2.20
2023-04-21T22:40:32.618Z,2.63
2023-04-21T22:42:59.128Z,2.77
2023-04-21T22:45:26.512Z,2.67
2023-04-21T22:47:53.092Z,2.20
2023-04-21T22:50:19.766Z,2.30
2023-04-21T22:52:46.233Z,2.57
2023-04-21T22:55:12.654Z,2.57
2023-04-21T22:57:39.309Z,2.43
2023-04-21T23:00:09.670Z,2.40
2023-04-21T23:02:36.461Z,2.23
2023-04-21T23:05:03.286Z,2.80
2023-04-21T23:07:29.797Z,1.90
2023-04-21T23:09:56.202Z,2.60
2023-04-21T23:12:22.727Z,2.20
2023-04-21T23:14:49.439Z,2.40
2023-04-21T23:17:15.874Z,2.70
2023-04-21T23:19:42.313Z,2.30
2023-04-21T23:22:08.816Z,2.07
2023-04-21T23:24:35.490Z,2.80
2023-04-21T23:27:02.224Z,2.53
2023-04-21T23:29:28.703Z,2.60
2023-04-21T23:31:55.400Z,2.17
2023-04-21T23:34:22.010Z,2.73
2023-04-21T23:36:48.505Z,2.50
2023-04-21T23:39:15.031Z,2.30
2023-04-21T23:41:41.606Z,2.60
2023-04-21T23:44:08.142Z,2.47
2023-04-21T23:46:34.691Z,3.00
2023-04-21T23:49:01.261Z,2.50
2023-04-21T23:51:28.695Z,2.60
2023-04-21T23:53:55.610Z,2.40
2023-04-21T23:56:22.332Z,2.60
2023-04-21T23:58:48.847Z,2.80
